Time;durP1;ratioP1;P1;durP2;ratioP2;P2;SDS_P1;SDS_P2;PMS_P1;PMS_P2;Temp;Humidity;BMP_temperature;BMP_pressure;BME280_temperature;BME280_humidity;BME280_pressure;Samples;Min_cycle;Max_cycle;Signal;HPM_P1;HPM_P2
2023/08/03 00:02:10;;;;;;;3.97;2.87;;;;;;;;;;5043500;28;20464;-80
2023/08/03 00:04:36;;;;;;;7.53;2.90;;;;;;;;;;5041600;28;20529;-80
2023/08/03 00:07:04;;;;;;;5.90;3.70;;;;;;;;;;5042089;28;20460;-81
2023/08/03 00:09:31;;;;;;;7.33;3.50;;;;;;;;;;5042071;28;20456;-80
2023/08/03 00:11:58;;;;;;;3.90;2.90;;;;;;;;;;5044509;28;20463;-82
2023/08/03 00:14:25;;;;;;;7.40;3.40;;;;;;;;;;5043536;28;21045;-80
2023/08/03 00:16:52;;;;;;;6.00;2.83;;;;;;;;;;5041565;28;21000;-80
2023/08/03 00:19:18;;;;;;;3.20;2.43;;;;;;;;;;5041672;28;20812;-80
2023/08/03 00:21:44;;;;;;;3.10;2.53;;;;;;;;;;5042855;28;20844;-80
2023/08/03 00:24:12;;;;;;;4.83;2.47;;;;;;;;;;5044486;28;21016;-80
2023/08/03 00:26:39;;;;;;;4.50;3.00;;;;;;;;;;5043280;28;20933;-80
2023/08/03 00:29:05;;;;;;;5.43;2.60;;;;;;;;;;5042037;28;20488;-80
2023/08/03 00:31:35;;;;;;;10.53;3.10;;;;;;;;;;5042067;28;20987;-80
2023/08/03 00:34:01;;;;;;;7.60;3.33;;;;;;;;;;5040043;28;20487;-80
2023/08/03 00:36:28;;;;;;;4.97;2.93;;;;;;;;;;5043789;28;20456;-80
2023/08/03 00:38:54;;;;;;;4.43;3.10;;;;;;;;;;5040483;28;20476;-80
2023/08/03 00:41:22;;;;;;;6.93;3.00;;;;;;;;;;5043800;28;20486;-80
2023/08/03 00:43:49;;;;;;;5.60;2.90;;;;;;;;;;5040705;28;20480;-80
2023/08/03 00:46:15;;;;;;;9.47;3.60;;;;;;;;;;5042130;28;20468;-80
2023/08/03 00:48:42;;;;;;;5.90;3.20;;;;;;;;;;5042230;28;20852;-80
2023/08/03 00:51:08;;;;;;;7.20;3.00;;;;;;;;;;5039607;28;20832;-80
2023/08/03 00:53:34;;;;;;;6.27;2.67;;;;;;;;;;5042635;28;20484;-80
2023/08/03 00:56:02;;;;;;;3.50;3.00;;;;;;;;;;5042085;28;20467;-80
2023/08/03 00:58:30;;;;;;;6.00;3.00;;;;;;;;;;5042071;28;20472;-80
2023/08/03 01:00:56;;;;;;;9.67;3.10;;;;;;;;;;5043128;28;20471;-80
2023/08/03 01:03:23;;;;;;;5.03;3.70;;;;;;;;;;5039953;28;20852;-80
2023/08/03 01:05:49;;;;;;;7.27;3.00;;;;;;;;;;5041536;28;20460;-80
2023/08/03 01:08:16;;;;;;;13.47;3.83;;;;;;;;;;5041206;28;20464;-80
2023/08/03 01:10:42;;;;;;;6.93;3.23;;;;;;;;;;5042431;28;20470;-80
2023/08/03 01:13:11;;;;;;;3.37;2.97;;;;;;;;;;5041502;28;20994;-80
2023/08/03 01:15:39;;;;;;;6.17;3.23;;;;;;;;;;5043331;28;20464;-80
2023/08/03 01:18:05;;;;;;;10.43;3.20;;;;;;;;;;5041723;28;20487;-79
2023/08/03 01:20:33;;;;;;;14.37;3.90;;;;;;;;;;5043823;28;20547;-80
2023/08/03 01:23:04;;;;;;;3.93;3.13;;;;;;;;;;5041141;28;20484;-80
2023/08/03 01:25:30;;;;;;;7.03;3.93;;;;;;;;;;5042375;28;20456;-80
2023/08/03 01:27:57;;;;;;;3.80;3.47;;;;;;;;;;5040867;28;21031;-80
2023/08/03 01:30:23;;;;;;;7.83;3.40;;;;;;;;;;5039561;28;20480;-80
2023/08/03 01:32:50;;;;;;;5.07;3.63;;;;;;;;;;5039429;28;20460;-80
2023/08/03 01:35:17;;;;;;;11.80;3.20;;;;;;;;;;5040049;28;20456;-79
2023/08/03 01:37:43;;;;;;;7.30;3.00;;;;;;;;;;5042173;28;20479;-80
2023/08/03 01:40:12;;;;;;;10.53;3.60;;;;;;;;;;5042173;28;20587;-80
2023/08/03 01:42:38;;;;;;;5.80;3.23;;;;;;;;;;5039112;28;20480;-79
2023/08/03 01:45:06;;;;;;;7.70;3.10;;;;;;;;;;5041594;28;20489;-80
2023/08/03 01:47:34;;;;;;;12.23;3.43;;;;;;;;;;5037478;28;20462;-79
2023/08/03 01:50:00;;;;;;;9.77;3.63;;;;;;;;;;5040252;28;21088;-79
2023/08/03 01:52:27;;;;;;;7.67;3.27;;;;;;;;;;5043042;28;20459;-80
2023/08/03 01:54:53;;;;;;;5.23;3.20;;;;;;;;;;5039520;28;20452;-80
2023/08/03 01:57:22;;;;;;;8.50;3.80;;;;;;;;;;5041684;28;20475;-80
2023/08/03 01:59:49;;;;;;;5.40;3.30;;;;;;;;;;5040493;28;20954;-80
2023/08/03 02:02:15;;;;;;;5.47;3.20;;;;;;;;;;5041106;28;20467;-80
2023/08/03 02:04:42;;;;;;;8.10;4.03;;;;;;;;;;5044549;28;20472;-80
2023/08/03 02:07:09;;;;;;;8.13;4.07;;;;;;;;;;5043450;28;20842;-80
2023/08/03 02:09:36;;;;;;;14.93;3.60;;;;;;;;;;5043856;28;20460;-80
2023/08/03 02:12:03;;;;;;;8.10;3.50;;;;;;;;;;5043407;28;21033;-80
2023/08/03 02:14:31;;;;;;;6.03;3.43;;;;;;;;;;5043826;28;20472;-80
2023/08/03 02:16:57;;;;;;;8.20;3.33;;;;;;;;;;5045783;28;20464;-80
2023/08/03 02:19:23;;;;;;;5.57;2.87;;;;;;;;;;5044789;28;20460;-80
2023/08/03 02:21:50;;;;;;;10.53;3.50;;;;;;;;;;5043822;28;21002;-80
2023/08/03 02:24:16;;;;;;;5.27;3.23;;;;;;;;;;5044465;28;20479;-80
2023/08/03 02:26:42;;;;;;;8.67;2.93;;;;;;;;;;5044928;28;20459;-80
2023/08/03 02:29:09;;;;;;;9.60;4.77;;;;;;;;;;5043583;28;20480;-80
2023/08/03 02:31:37;;;;;;;9.73;3.57;;;;;;;;;;5044892;28;20844;-80
2023/08/03 02:34:04;;;;;;;8.53;3.50;;;;;;;;;;5044677;28;20468;-79
2023/08/03 02:36:30;;;;;;;7.90;3.40;;;;;;;;;;5042247;28;20901;-80
2023/08/03 02:38:56;;;;;;;4.20;3.80;;;;;;;;;;5043414;28;20486;-80
2023/08/03 02:41:23;;;;;;;6.37;3.33;;;;;;;;;;5043898;28;20838;-80
2023/08/03 02:43:49;;;;;;;8.50;4.30;;;;;;;;;;5045115;28;20471;-80
2023/08/03 02:46:15;;;;;;;9.50;2.97;;;;;;;;;;5044318;28;20926;-80
2023/08/03 02:48:43;;;;;;;6.33;3.30;;;;;;;;;;5042667;28;20483;-80
2023/08/03 02:51:09;;;;;;;6.53;2.80;;;;;;;;;;5042485;28;20965;-80
2023/08/03 02:53:36;;;;;;;6.73;3.10;;;;;;;;;;5044456;28;20471;-80
2023/08/03 02:56:02;;;;;;;3.97;3.13;;;;;;;;;;5044653;28;20467;-79
2023/08/03 02:58:29;;;;;;;7.83;3.77;;;;;;;;;;5043131;28;21025;-80
2023/08/03 03:00:56;;;;;;;7.50;4.30;;;;;;;;;;5044966;28;20458;-80
2023/08/03 03:03:22;;;;;;;8.60;3.10;;;;;;;;;;5041470;28;21127;-80
2023/08/03 03:05:50;;;;;;;5.37;3.37;;;;;;;;;;5044308;28;20477;-80
2023/08/03 03:08:16;;;;;;;4.80;3.33;;;;;;;;;;5044790;28;20583;-80
2023/08/03 03:10:43;;;;;;;3.53;2.63;;;;;;;;;;5044945;28;20466;-80
2023/08/03 03:13:09;;;;;;;8.57;3.50;;;;;;;;;;5043108;28;20479;-80
2023/08/03 03:15:35;;;;;;;7.97;2.70;;;;;;;;;;5043669;28;20444;-80
2023/08/03 03:18:02;;;;;;;4.90;3.13;;;;;;;;;;5042485;28;21025;-80
2023/08/03 03:20:28;;;;;;;8.87;3.90;;;;;;;;;;5045037;28;20448;-80
2023/08/03 03:22:56;;;;;;;5.67;3.00;;;;;;;;;;5041313;28;20473;-80
2023/08/03 03:25:22;;;;;;;9.63;3.53;;;;;;;;;;5043029;28;20539;-80
2023/08/03 03:27:49;;;;;;;7.10;3.63;;;;;;;;;;5042293;28;20471;-80
2023/08/03 03:30:16;;;;;;;6.37;3.27;;;;;;;;;;5043963;28;21000;-80
2023/08/03 03:32:43;;;;;;;6.00;3.53;;;;;;;;;;5042807;28;21004;-80
2023/08/03 03:35:09;;;;;;;5.93;3.50;;;;;;;;;;5042237;28;20958;-80
2023/08/03 03:37:36;;;;;;;3.57;2.87;;;;;;;;;;5043121;28;20472;-80
2023/08/03 03:40:04;;;;;;;5.13;3.13;;;;;;;;;;5041604;28;21018;-80
2023/08/03 03:42:31;;;;;;;4.90;3.30;;;;;;;;;;5044096;28;20467;-80
2023/08/03 03:44:57;;;;;;;9.93;4.13;;;;;;;;;;5044572;28;20490;-80
2023/08/03 03:47:23;;;;;;;4.50;3.30;;;;;;;;;;5042635;28;21013;-80
2023/08/03 03:49:52;;;;;;;6.00;3.60;;;;;;;;;;5043986;28;20456;-80
2023/08/03 03:52:19;;;;;;;4.93;3.23;;;;;;;;;;5042977;28;20476;-79
2023/08/03 03:54:46;;;;;;;4.53;3.77;;;;;;;;;;5042942;28;20498;-80
2023/08/03 03:57:13;;;;;;;6.07;3.30;;;;;;;;;;5044135;28;20476;-80
2023/08/03 03:59:40;;;;;;;9.97;4.40;;;;;;;;;;5044834;28;20451;-80
2023/08/03 04:02:07;;;;;;;6.43;3.73;;;;;;;;;;5043047;28;20488;-80
2023/08/03 04:04:33;;;;;;;6.33;4.20;;;;;;;;;;5043777;28;20479;-80
2023/08/03 04:06:59;;;;;;;4.10;3.70;;;;;;;;;;5043404;28;20803;-81
2023/08/03 04:09:26;;;;;;;4.90;4.17;;;;;;;;;;5041723;28;20457;-80
2023/08/03 04:11:52;;;;;;;7.07;4.20;;;;;;;;;;5043750;28;20494;-80
2023/08/03 04:14:23;;;;;;;4.90;3.93;;;;;;;;;;5039287;28;20474;-80
2023/08/03 04:16:50;;;;;;;5.40;5.00;;;;;;;;;;5042148;28;20456;-80
2023/08/03 04:19:16;;;;;;;6.37;3.90;;;;;;;;;;5042628;28;20472;-80
2023/08/03 04:21:43;;;;;;;5.00;4.17;;;;;;;;;;5041994;28;21430;-80
2023/08/03 04:24:09;;;;;;;4.97;4.47;;;;;;;;;;5042283;28;20469;-80
2023/08/03 04:26:35;;;;;;;5.13;4.50;;;;;;;;;;5040094;28;20471;-80
2023/08/03 04:29:02;;;;;;;4.70;4.30;;;;;;;;;;5041449;28;21025;-80
2023/08/03 04:31:29;;;;;;;5.47;4.90;;;;;;;;;;5040277;28;20975;-80
2023/08/03 04:33:56;;;;;;;6.00;5.40;;;;;;;;;;5042286;28;20480;-79
2023/08/03 04:36:22;;;;;;;5.53;5.10;;;;;;;;;;5040531;28;20460;-80
2023/08/03 04:38:48;;;;;;;5.87;5.27;;;;;;;;;;5042388;28;20472;-80
2023/08/03 04:41:16;;;;;;;6.77;5.00;;;;;;;;;;5040700;28;20996;-80
2023/08/03 04:43:43;;;;;;;5.80;5.33;;;;;;;;;;5042042;28;21005;-80
2023/08/03 04:46:09;;;;;;;5.07;4.50;;;;;;;;;;5041862;28;20483;-80
2023/08/03 04:48:37;;;;;;;5.77;5.07;;;;;;;;;;5041599;28;20479;-80
2023/08/03 04:51:03;;;;;;;5.90;5.40;;;;;;;;;;5041772;28;20837;-80
2023/08/03 04:53:29;;;;;;;9.30;5.17;;;;;;;;;;5040884;28;20866;-80
2023/08/03 04:55:56;;;;;;;6.00;5.50;;;;;;;;;;5041212;28;20470;-80
2023/08/03 04:58:22;;;;;;;6.27;5.67;;;;;;;;;;5043059;28;20491;-80
2023/08/03 05:00:49;;;;;;;5.87;5.40;;;;;;;;;;5041476;28;20448;-80
2023/08/03 05:03:15;;;;;;;6.03;5.40;;;;;;;;;;5038969;28;20484;-80
2023/08/03 05:05:43;;;;;;;5.90;5.40;;;;;;;;;;5041494;28;20487;-80
2023/08/03 05:08:10;;;;;;;7.17;5.70;;;;;;;;;;5042386;28;20477;-80
2023/08/03 05:10:36;;;;;;;5.90;5.37;;;;;;;;;;5040103;28;20839;-80
2023/08/03 05:13:02;;;;;;;5.97;5.37;;;;;;;;;;5038428;28;20533;-80
2023/08/03 05:15:29;;;;;;;5.23;4.80;;;;;;;;;;5042085;28;20463;-80
2023/08/03 05:17:55;;;;;;;8.33;7.20;;;;;;;;;;5042388;28;21036;-80
2023/08/03 05:20:21;;;;;;;7.80;4.70;;;;;;;;;;5042190;28;20551;-80
2023/08/03 05:22:49;;;;;;;6.53;4.70;;;;;;;;;;5041526;28;20480;-80
2023/08/03 05:25:16;;;;;;;6.13;4.83;;;;;;;;;;5039779;28;20487;-80
2023/08/03 05:27:42;;;;;;;5.80;5.20;;;;;;;;;;5036526;28;20471;-80
2023/08/03 05:30:09;;;;;;;9.43;5.93;;;;;;;;;;5041370;28;20464;-80
2023/08/03 05:32:35;;;;;;;10.47;5.33;;;;;;;;;;5041116;28;20480;-80
2023/08/03 05:35:02;;;;;;;14.43;5.20;;;;;;;;;;5039318;28;20463;-80
2023/08/03 05:37:29;;;;;;;12.00;5.20;;;;;;;;;;5041216;28;20467;-80
2023/08/03 05:39:56;;;;;;;9.33;5.77;;;;;;;;;;5039235;28;20458;-79
2023/08/03 05:42:23;;;;;;;6.20;4.43;;;;;;;;;;5039730;28;20465;-80
2023/08/03 05:44:49;;;;;;;4.83;4.30;;;;;;;;;;5041254;28;20526;-79
2023/08/03 05:47:18;;;;;;;7.67;5.10;;;;;;;;;;5039402;28;20483;-80
2023/08/03 05:49:45;;;;;;;8.23;4.40;;;;;;;;;;5038746;28;20444;-80
2023/08/03 05:52:12;;;;;;;12.07;4.00;;;;;;;;;;5039336;28;20479;-80
2023/08/03 05:54:39;;;;;;;5.93;3.00;;;;;;;;;;5043835;28;20435;-80
2023/08/03 05:57:11;;;;;;;3.73;3.30;;;;;;;;;;5042642;28;20838;-80
2023/08/03 05:59:37;;;;;;;5.70;3.10;;;;;;;;;;5041418;28;20451;-80
2023/08/03 06:02:05;;;;;;;4.73;3.30;;;;;;;;;;5039408;28;20484;-80
2023/08/03 06:04:31;;;;;;;4.00;3.00;;;;;;;;;;5039998;28;20464;-80
2023/08/03 06:06:58;;;;;;;2.40;2.03;;;;;;;;;;5041355;28;20444;-79
2023/08/03 06:09:25;;;;;;;1.93;1.70;;;;;;;;;;5040366;28;20468;-79
2023/08/03 06:11:52;;;;;;;1.93;1.67;;;;;;;;;;5038952;28;20920;-79
2023/08/03 06:14:20;;;;;;;1.50;1.40;;;;;;;;;;5041083;28;20476;-79
2023/08/03 06:16:46;;;;;;;1.03;1.03;;;;;;;;;;5043526;28;20862;-80
2023/08/03 06:19:13;;;;;;;1.80;1.33;;;;;;;;;;5041105;28;20837;-79
2023/08/03 06:21:40;;;;;;;5.20;1.40;;;;;;;;;;5042631;28;20472;-79
2023/08/03 06:24:06;;;;;;;2.33;1.60;;;;;;;;;;5040068;28;20492;-79
2023/08/03 06:26:34;;;;;;;2.43;2.23;;;;;;;;;;5041601;28;20858;-79
2023/08/03 06:29:02;;;;;;;5.60;2.93;;;;;;;;;;5038919;28;20487;-80
2023/08/03 06:31:32;;;;;;;2.13;1.73;;;;;;;;;;5041244;28;20461;-79
2023/08/03 06:33:58;;;;;;;1.50;1.40;;;;;;;;;;5041101;28;20502;-79
2023/08/03 06:36:26;;;;;;;1.40;1.30;;;;;;;;;;5040538;28;20440;-79
2023/08/03 06:38:54;;;;;;;1.80;1.70;;;;;;;;;;5039510;28;20526;-79
2023/08/03 06:41:20;;;;;;;3.37;2.60;;;;;;;;;;5041093;28;20444;-79
2023/08/03 06:43:47;;;;;;;4.87;1.70;;;;;;;;;;5039037;28;20472;-79
2023/08/03 06:46:13;;;;;;;4.90;2.43;;;;;;;;;;5041080;28;20827;-79
2023/08/03 06:48:41;;;;;;;4.23;2.60;;;;;;;;;;5040335;28;20479;-79
2023/08/03 06:51:08;;;;;;;2.87;2.17;;;;;;;;;;5044180;28;20462;-80
2023/08/03 06:53:34;;;;;;;4.60;2.33;;;;;;;;;;5044458;28;20484;-80
2023/08/03 06:56:00;;;;;;;8.73;2.70;;;;;;;;;;5043251;28;20437;-79
2023/08/03 06:58:29;;;;;;;6.10;3.10;;;;;;;;;;5043684;28;20471;-79
2023/08/03 07:00:55;;;;;;;10.90;5.10;;;;;;;;;;5042721;28;20456;-80
2023/08/03 07:03:22;;;;;;;13.63;5.40;;;;;;;;;;5041414;28;20475;-80
2023/08/03 07:05:49;;;;;;;16.53;6.53;;;;;;;;;;5043153;28;20974;-80
2023/08/03 07:08:16;;;;;;;12.83;7.13;;;;;;;;;;5059079;28;20479;-80
2023/08/03 07:10:42;;;;;;;9.20;6.50;;;;;;;;;;5045102;28;20421;-80
2023/08/03 07:13:09;;;;;;;12.50;6.83;;;;;;;;;;5042651;28;20475;-80
2023/08/03 07:15:35;;;;;;;11.90;6.97;;;;;;;;;;5044229;28;20460;-80
2023/08/03 07:18:03;;;;;;;10.90;6.53;;;;;;;;;;5043131;28;20473;-80
2023/08/03 07:20:29;;;;;;;12.23;7.20;;;;;;;;;;5044476;28;20458;-80
2023/08/03 07:22:57;;;;;;;11.73;7.20;;;;;;;;;;5041470;28;20486;-79
2023/08/03 07:25:24;;;;;;;11.57;7.50;;;;;;;;;;5044211;28;20488;-80
2023/08/03 07:27:51;;;;;;;9.43;6.50;;;;;;;;;;5044568;28;20468;-80
2023/08/03 07:30:17;;;;;;;12.33;7.20;;;;;;;;;;5041678;28;20455;-80
2023/08/03 07:32:43;;;;;;;10.13;6.90;;;;;;;;;;5040814;28;21008;-80
2023/08/03 07:35:10;;;;;;;14.97;7.30;;;;;;;;;;5044292;28;20829;-79
2023/08/03 07:37:36;;;;;;;12.63;7.37;;;;;;;;;;5042449;28;20965;-80
2023/08/03 07:40:05;;;;;;;10.57;6.60;;;;;;;;;;5044575;28;20472;-80
2023/08/03 07:42:32;;;;;;;11.33;6.17;;;;;;;;;;5043049;28;20463;-79
2023/08/03 07:44:58;;;;;;;11.10;6.30;;;;;;;;;;5041505;28;20455;-80
2023/08/03 07:47:25;;;;;;;7.83;5.90;;;;;;;;;;5044640;28;20845;-80
2023/08/03 07:49:54;;;;;;;9.57;5.80;;;;;;;;;;5040003;28;20451;-80
2023/08/03 07:52:20;;;;;;;6.33;5.70;;;;;;;;;;5043073;28;20841;-80
2023/08/03 07:54:47;;;;;;;11.13;6.40;;;;;;;;;;5045139;28;20464;-80
2023/08/03 07:57:15;;;;;;;14.40;6.37;;;;;;;;;;5044409;28;20468;-80
2023/08/03 07:59:42;;;;;;;6.50;5.80;;;;;;;;;;5042735;28;20439;-80
2023/08/03 08:02:08;;;;;;;12.10;5.13;;;;;;;;;;5040626;28;20488;-80
2023/08/03 08:04:34;;;;;;;13.40;5.17;;;;;;;;;;5042722;28;20450;-80
2023/08/03 08:07:01;;;;;;;10.57;6.20;;;;;;;;;;5042745;28;20478;-81
2023/08/03 08:09:27;;;;;;;11.03;6.03;;;;;;;;;;5039517;28;20452;-80
2023/08/03 08:11:54;;;;;;;5.43;4.93;;;;;;;;;;5042861;28;20983;-80
2023/08/03 08:14:22;;;;;;;6.87;6.13;;;;;;;;;;5041988;28;20499;-80
2023/08/03 08:16:48;;;;;;;7.47;5.63;;;;;;;;;;5044219;28;20460;-80
2023/08/03 08:19:15;;;;;;;8.10;6.00;;;;;;;;;;5042043;28;20503;-80
2023/08/03 08:21:41;;;;;;;7.73;5.60;;;;;;;;;;5042536;28;21021;-80
2023/08/03 08:24:08;;;;;;;6.27;5.70;;;;;;;;;;5043132;28;20476;-80
2023/08/03 08:26:34;;;;;;;8.97;5.00;;;;;;;;;;5041415;28;20512;-81
2023/08/03 08:29:01;;;;;;;6.63;5.93;;;;;;;;;;5042622;28;20548;-80
2023/08/03 08:31:28;;;;;;;8.23;5.60;;;;;;;;;;5044416;28;20450;-80
2023/08/03 08:33:55;;;;;;;6.40;5.80;;;;;;;;;;5038436;28;20468;-80
2023/08/03 08:36:21;;;;;;;6.20;5.60;;;;;;;;;;5044158;28;20463;-80
2023/08/03 08:38:50;;;;;;;5.70;4.80;;;;;;;;;;5040922;28;20877;-80
2023/08/03 08:41:16;;;;;;;5.80;5.20;;;;;;;;;;5044081;28;20466;-80
2023/08/03 08:43:42;;;;;;;7.30;4.27;;;;;;;;;;5040367;28;20465;-79
2023/08/03 08:46:09;;;;;;;6.60;3.50;;;;;;;;;;5040665;28;20480;-79
2023/08/03 08:48:37;;;;;;;4.93;4.03;;;;;;;;;;5039450;28;20508;-79
2023/08/03 08:51:05;;;;;;;2.50;2.30;;;;;;;;;;5042208;28;20437;-79
2023/08/03 08:53:31;;;;;;;3.70;2.90;;;;;;;;;;5041288;28;20468;-79
2023/08/03 08:55:59;;;;;;;3.13;2.70;;;;;;;;;;5041816;28;20456;-79
2023/08/03 08:58:27;;;;;;;4.70;2.97;;;;;;;;;;5041537;28;20519;-80
2023/08/03 09:00:54;;;;;;;4.20;2.50;;;;;;;;;;5041420;28;20498;-79
2023/08/03 09:03:20;;;;;;;2.40;2.07;;;;;;;;;;5040287;28;20499;-79
2023/08/03 09:05:58;;;;;;;2.90;2.27;;;;;;;;;;5043071;28;21012;-79
2023/08/03 09:08:26;;;;;;;2.83;2.10;;;;;;;;;;5043161;28;20482;-79
2023/08/03 09:10:54;;;;;;;2.33;2.07;;;;;;;;;;5042305;28;20464;-80
2023/08/03 09:13:27;;;;;;;2.87;2.30;;;;;;;;;;5039125;28;20484;-79
2023/08/03 09:15:54;;;;;;;2.83;2.40;;;;;;;;;;5042599;28;20938;-80
2023/08/03 09:18:21;;;;;;;2.77;2.57;;;;;;;;;;5040724;28;20832;-80
2023/08/03 09:20:50;;;;;;;3.57;2.83;;;;;;;;;;5042571;28;20454;-80
2023/08/03 09:23:27;;;;;;;2.77;2.57;;;;;;;;;;5040012;28;20475;-80
2023/08/03 09:25:54;;;;;;;2.80;2.60;;;;;;;;;;5043796;28;20852;-80
2023/08/03 09:28:21;;;;;;;3.57;3.10;;;;;;;;;;5041436;28;20475;-80
2023/08/03 09:30:48;;;;;;;2.97;2.43;;;;;;;;;;5040057;28;20892;-80
2023/08/03 09:33:15;;;;;;;3.03;2.83;;;;;;;;;;5039307;28;20479;-80
2023/08/03 09:35:41;;;;;;;4.17;2.70;;;;;;;;;;5042986;28;20443;-80
2023/08/03 09:38:23;;;;;;;3.73;2.47;;;;;;;;;;5039477;28;20471;-80
2023/08/03 09:40:50;;;;;;;3.50;3.20;;;;;;;;;;5042417;28;20463;-80
2023/08/03 09:43:17;;;;;;;2.70;2.50;;;;;;;;;;5040619;28;20471;-80
2023/08/03 09:45:45;;;;;;;3.27;2.47;;;;;;;;;;5042835;28;20436;-80
2023/08/03 09:48:12;;;;;;;1.90;1.80;;;;;;;;;;5041005;28;20839;-80
2023/08/03 09:50:39;;;;;;;3.30;3.00;;;;;;;;;;5042696;28;20521;-80
2023/08/03 09:53:10;;;;;;;3.67;3.07;;;;;;;;;;5039134;28;20476;-80
2023/08/03 09:55:40;;;;;;;6.00;2.70;;;;;;;;;;5040005;28;20448;-79
2023/08/03 09:58:07;;;;;;;2.70;2.13;;;;;;;;;;5042092;28;20490;-80
2023/08/03 10:00:35;;;;;;;5.47;2.47;;;;;;;;;;5041783;28;20459;-80
2023/08/03 10:03:05;;;;;;;3.43;1.97;;;;;;;;;;5041721;28;20472;-80
2023/08/03 10:05:35;;;;;;;2.43;1.70;;;;;;;;;;5043479;28;20453;-80
2023/08/03 10:08:05;;;;;;;2.27;2.07;;;;;;;;;;5038812;28;20548;-80
2023/08/03 10:10:36;;;;;;;2.60;2.10;;;;;;;;;;5039137;28;20491;-80
2023/08/03 10:13:04;;;;;;;3.23;1.83;;;;;;;;;;5038766;28;20473;-80
2023/08/03 10:15:31;;;;;;;2.50;2.30;;;;;;;;;;5042118;28;20825;-80
2023/08/03 10:17:58;;;;;;;2.60;1.77;;;;;;;;;;5039824;28;20467;-80
2023/08/03 10:20:25;;;;;;;1.63;1.30;;;;;;;;;;5042925;28;20439;-80
2023/08/03 10:23:21;;;;;;;6.60;1.90;;;;;;;;;;5040915;28;20500;-80
2023/08/03 10:25:51;;;;;;;1.63;1.30;;;;;;;;;;5042424;28;20973;-80
2023/08/03 10:28:19;;;;;;;2.03;1.30;;;;;;;;;;5043009;28;21069;-80
2023/08/03 10:31:10;;;;;;;5.43;2.00;;;;;;;;;;5042480;28;20950;-80
2023/08/03 10:33:56;;;;;;;2.07;1.60;;;;;;;;;;5042038;28;20917;-80
2023/08/03 10:36:38;;;;;;;2.93;1.57;;;;;;;;;;5043354;28;20489;-80
2023/08/03 10:39:06;;;;;;;1.60;1.50;;;;;;;;;;5044376;28;20476;-80
2023/08/03 10:41:36;;;;;;;1.27;1.27;;;;;;;;;;5045609;28;20617;-80
2023/08/03 10:44:21;;;;;;;1.43;1.33;;;;;;;;;;5044292;28;20500;-80
2023/08/03 10:46:50;;;;;;;2.03;1.47;;;;;;;;;;5045005;28;21045;-80
2023/08/03 10:49:33;;;;;;;3.53;1.37;;;;;;;;;;5043729;28;20467;-80
2023/08/03 10:52:14;;;;;;;1.33;1.23;;;;;;;;;;5045107;28;20518;-80
2023/08/03 10:54:40;;;;;;;3.50;1.40;;;;;;;;;;5041564;28;20466;-80
2023/08/03 10:57:08;;;;;;;1.50;1.40;;;;;;;;;;5043615;28;20435;-80
2023/08/03 10:59:35;;;;;;;3.47;1.63;;;;;;;;;;5044112;28;20444;-80
2023/08/03 11:02:11;;;;;;;2.70;1.00;;;;;;;;;;5040855;28;20467;-81
2023/08/03 11:04:39;;;;;;;3.67;1.30;;;;;;;;;;5044308;28;20462;-80
2023/08/03 11:07:06;;;;;;;3.23;1.83;;;;;;;;;;5043589;28;20915;-80
2023/08/03 11:09:32;;;;;;;2.27;1.37;;;;;;;;;;5042579;28;20513;-80
2023/08/03 11:12:00;;;;;;;3.00;1.20;;;;;;;;;;5044306;28;20457;-81
2023/08/03 11:14:27;;;;;;;1.67;1.00;;;;;;;;;;5045060;28;20535;-80
2023/08/03 11:16:54;;;;;;;3.80;0.90;;;;;;;;;;5041981;28;20441;-80
2023/08/03 11:19:22;;;;;;;3.07;1.23;;;;;;;;;;5044958;28;20468;-80
2023/08/03 11:21:48;;;;;;;4.80;1.07;;;;;;;;;;5039531;28;20486;-81
2023/08/03 11:24:15;;;;;;;2.17;1.20;;;;;;;;;;5044236;28;20476;-80
2023/08/03 11:26:42;;;;;;;6.10;1.73;;;;;;;;;;5044368;28;20490;-80
2023/08/03 11:29:08;;;;;;;1.40;1.30;;;;;;;;;;5042819;28;20471;-80
2023/08/03 11:31:35;;;;;;;2.67;1.30;;;;;;;;;;5042689;28;20468;-81
2023/08/03 11:34:01;;;;;;;3.47;1.50;;;;;;;;;;5045183;28;20471;-81
2023/08/03 11:36:30;;;;;;;1.43;1.33;;;;;;;;;;5043642;28;21416;-81
2023/08/03 11:38:56;;;;;;;2.20;1.30;;;;;;;;;;5042691;28;20483;-80
2023/08/03 11:41:24;;;;;;;4.00;1.87;;;;;;;;;;5046115;28;20448;-81
2023/08/03 11:43:51;;;;;;;3.23;1.40;;;;;;;;;;5045339;28;20469;-81
2023/08/03 11:46:20;;;;;;;3.07;1.40;;;;;;;;;;5044357;28;20443;-81
2023/08/03 11:48:47;;;;;;;3.73;1.30;;;;;;;;;;5042584;28;20475;-81
2023/08/03 11:51:13;;;;;;;4.00;1.80;;;;;;;;;;5044666;28;20444;-80
2023/08/03 11:53:44;;;;;;;4.23;1.70;;;;;;;;;;5044691;28;20468;-81
2023/08/03 11:56:11;;;;;;;2.23;1.17;;;;;;;;;;5043154;28;20459;-81
2023/08/03 11:58:37;;;;;;;2.47;1.40;;;;;;;;;;5042379;28;20479;-81
2023/08/03 12:01:04;;;;;;;2.10;1.70;;;;;;;;;;5043111;28;20436;-81
2023/08/03 12:03:33;;;;;;;8.17;1.83;;;;;;;;;;5042152;28;20238;-81
2023/08/03 12:06:05;;;;;;;3.53;1.57;;;;;;;;;;5041037;28;20440;-81
2023/08/03 12:08:31;;;;;;;5.73;2.70;;;;;;;;;;5042408;28;21018;-81
2023/08/03 12:11:01;;;;;;;2.53;1.43;;;;;;;;;;5041583;28;20463;-83
2023/08/03 12:13:27;;;;;;;3.27;1.50;;;;;;;;;;5039674;28;20460;-81
2023/08/03 12:15:54;;;;;;;1.93;1.43;;;;;;;;;;5043143;28;20510;-80
2023/08/03 12:18:21;;;;;;;3.97;1.70;;;;;;;;;;5043836;28;20475;-81
2023/08/03 12:20:49;;;;;;;3.30;1.70;;;;;;;;;;5040592;28;20451;-81
2023/08/03 12:23:15;;;;;;;6.80;1.93;;;;;;;;;;5040752;28;20473;-81
2023/08/03 12:25:42;;;;;;;2.30;1.60;;;;;;;;;;5043842;28;20436;-81
2023/08/03 12:28:09;;;;;;;4.27;1.53;;;;;;;;;;5040541;28;20494;-81
2023/08/03 12:30:36;;;;;;;1.43;1.30;;;;;;;;;;5043254;28;20469;-81
2023/08/03 12:33:02;;;;;;;2.00;1.20;;;;;;;;;;5044351;28;20495;-81
2023/08/03 12:35:29;;;;;;;10.23;2.00;;;;;;;;;;5044508;28;20441;-81
2023/08/03 12:37:55;;;;;;;3.77;1.50;;;;;;;;;;5041074;28;20460;-80
2023/08/03 12:40:21;;;;;;;5.17;1.27;;;;;;;;;;5044305;28;20448;-81
2023/08/03 12:42:49;;;;;;;2.73;1.40;;;;;;;;;;5042909;28;20555;-81
2023/08/03 12:45:17;;;;;;;1.83;1.20;;;;;;;;;;5043706;28;20453;-81
2023/08/03 12:47:43;;;;;;;3.03;1.40;;;;;;;;;;5041364;28;20479;-81
2023/08/03 12:50:10;;;;;;;1.83;1.17;;;;;;;;;;5044759;28;20807;-81
2023/08/03 12:52:36;;;;;;;3.73;1.53;;;;;;;;;;5037985;28;21058;-81
2023/08/03 12:55:03;;;;;;;1.30;1.20;;;;;;;;;;5042883;28;20459;-81
2023/08/03 12:57:29;;;;;;;2.93;1.50;;;;;;;;;;5044715;28;20460;-81
2023/08/03 12:59:55;;;;;;;5.30;2.03;;;;;;;;;;5043152;28;20452;-81
2023/08/03 13:02:24;;;;;;;4.60;1.60;;;;;;;;;;5041241;28;20485;-81
2023/08/03 13:04:52;;;;;;;3.43;1.50;;;;;;;;;;5042916;28;20883;-81
2023/08/03 13:07:18;;;;;;;1.80;1.30;;;;;;;;;;5042365;28;20879;-81
2023/08/03 13:09:45;;;;;;;1.40;1.07;;;;;;;;;;5040700;28;20460;-81
2023/08/03 13:12:14;;;;;;;5.40;1.50;;;;;;;;;;5041258;28;20468;-80
2023/08/03 13:14:40;;;;;;;5.33;2.07;;;;;;;;;;5040621;28;20460;-80
2023/08/03 13:17:07;;;;;;;14.20;2.43;;;;;;;;;;5040230;28;20451;-81
2023/08/03 13:19:35;;;;;;;7.00;2.07;;;;;;;;;;5041201;28;20941;-80
2023/08/03 13:22:01;;;;;;;4.27;2.10;;;;;;;;;;5038624;28;20984;-81
2023/08/03 13:24:28;;;;;;;4.43;1.73;;;;;;;;;;5040912;28;20439;-80
2023/08/03 13:27:11;;;;;;;3.67;2.63;;;;;;;;;;5041711;28;20460;-80
2023/08/03 13:29:37;;;;;;;4.10;1.80;;;;;;;;;;5039761;28;20460;-80
2023/08/03 13:32:04;;;;;;;8.83;3.23;;;;;;;;;;5040042;28;20479;-80
2023/08/03 13:34:31;;;;;;;5.57;2.60;;;;;;;;;;5042500;28;20449;-80
2023/08/03 13:36:58;;;;;;;6.50;2.30;;;;;;;;;;5039158;28;20464;-80
2023/08/03 13:39:25;;;;;;;3.40;2.20;;;;;;;;;;5041169;28;21060;-80
2023/08/03 13:41:51;;;;;;;4.27;2.40;;;;;;;;;;5041556;28;21013;-80
2023/08/03 13:44:17;;;;;;;2.30;2.00;;;;;;;;;;5040277;28;20472;-80
2023/08/03 13:46:44;;;;;;;2.50;2.30;;;;;;;;;;5039160;28;20437;-80
2023/08/03 13:49:10;;;;;;;4.20;2.30;;;;;;;;;;5040040;28;20472;-80
2023/08/03 13:51:37;;;;;;;2.73;2.50;;;;;;;;;;5042616;28;20819;-81
2023/08/03 13:54:05;;;;;;;7.00;2.80;;;;;;;;;;5040365;28;20464;-80
2023/08/03 13:56:31;;;;;;;2.67;2.43;;;;;;;;;;5041616;28;21005;-81
2023/08/03 13:58:58;;;;;;;4.20;2.40;;;;;;;;;;5042477;28;20494;-81
2023/08/03 14:01:25;;;;;;;8.23;2.67;;;;;;;;;;5048186;28;20820;-81
2023/08/03 14:03:52;;;;;;;4.47;3.00;;;;;;;;;;5044214;28;20936;-81
2023/08/03 14:06:18;;;;;;;2.70;2.30;;;;;;;;;;5042778;28;20460;-81
2023/08/03 14:08:45;;;;;;;9.20;3.07;;;;;;;;;;5046861;28;20464;-80
2023/08/03 14:11:13;;;;;;;6.83;2.40;;;;;;;;;;5047082;28;20467;-80
2023/08/03 14:13:39;;;;;;;3.63;2.37;;;;;;;;;;5042797;28;20467;-81
2023/08/03 14:16:09;;;;;;;4.10;2.77;;;;;;;;;;5042484;28;20475;-80
2023/08/03 14:18:37;;;;;;;5.60;2.40;;;;;;;;;;5044109;28;20477;-81
2023/08/03 14:21:03;;;;;;;2.97;2.20;;;;;;;;;;5041335;28;20442;-81
2023/08/03 14:23:30;;;;;;;3.73;2.00;;;;;;;;;;5043007;28;20468;-81
2023/08/03 14:25:56;;;;;;;7.37;2.57;;;;;;;;;;5047204;28;20447;-81
2023/08/03 14:28:25;;;;;;;4.60;2.57;;;;;;;;;;5042602;28;20483;-81
2023/08/03 14:30:52;;;;;;;4.80;2.60;;;;;;;;;;5045501;28;20941;-81
2023/08/03 14:33:20;;;;;;;3.10;2.50;;;;;;;;;;5043982;28;20853;-81
2023/08/03 14:35:47;;;;;;;5.40;1.73;;;;;;;;;;5047056;28;20461;-81
2023/08/03 14:38:13;;;;;;;4.60;1.73;;;;;;;;;;5044275;28;20468;-81
2023/08/03 14:40:39;;;;;;;4.17;1.77;;;;;;;;;;5042652;28;20811;-81
2023/08/03 14:43:06;;;;;;;3.80;1.77;;;;;;;;;;5045047;28;20488;-81